createdAt,value
2023-03-29T00:00:12.353Z,3.99
2023-03-29T00:02:40.637Z,3.82
2023-03-29T00:05:12.385Z,3.82
2023-03-29T00:07:41.459Z,3.81
2023-03-29T00:10:11.457Z,3.93
2023-03-29T00:12:40.973Z,3.93
2023-03-29T00:15:09.990Z,4.02
2023-03-29T00:17:37.961Z,3.92
2023-03-29T00:20:10.116Z,3.91
2023-03-29T00:22:42.165Z,3.92
2023-03-29T00:25:10.953Z,3.93
2023-03-29T00:27:39.316Z,4.01
2023-03-29T00:30:10.133Z,4.00
2023-03-29T00:32:38.700Z,3.99
2023-03-29T00:35:07.578Z,3.91
2023-03-29T00:37:35.677Z,3.97
2023-03-29T00:40:08.429Z,3.99
2023-03-29T00:42:36.375Z,3.88
2023-03-29T00:45:07.316Z,3.94
2023-03-29T00:47:38.888Z,3.96
2023-03-29T00:50:12.441Z,3.99
2023-03-29T00:52:40.972Z,3.95
2023-03-29T00:55:13.762Z,3.93
2023-03-29T00:57:46.785Z,4.00
2023-03-29T01:00:18.202Z,3.92
2023-03-29T01:02:51.093Z,3.98
2023-03-29T01:05:22.645Z,3.99
2023-03-29T01:07:54.943Z,4.00
2023-03-29T01:10:27.579Z,3.98
2023-03-29T01:13:01.522Z,4.04
2023-03-29T01:15:30.045Z,4.11
2023-03-29T01:18:01.975Z,4.18
2023-03-29T01:20:43.366Z,4.07
2023-03-29T01:23:23.079Z,4.02
2023-03-29T01:25:58.143Z,4.01
2023-03-29T01:28:31.386Z,4.13
2023-03-29T01:31:04.053Z,4.07
2023-03-29T01:33:34.820Z,4.06
2023-03-29T01:36:08.152Z,4.20
2023-03-29T01:38:39.658Z,4.16
2023-03-29T01:41:07.958Z,4.20
2023-03-29T01:43:40.620Z,4.23
2023-03-29T01:46:10.809Z,4.11
2023-03-29T01:48:45.655Z,4.14
2023-03-29T01:51:16.990Z,4.27
2023-03-29T01:53:48.435Z,4.24
2023-03-29T01:56:19.317Z,4.14
2023-03-29T01:58:53.864Z,4.22
2023-03-29T02:01:26.485Z,4.15
2023-03-29T02:03:56.323Z,4.21
2023-03-29T02:06:28.099Z,4.06
2023-03-29T02:08:56.833Z,4.03
2023-03-29T02:11:27.060Z,4.10
2023-03-29T02:13:56.617Z,4.15
2023-03-29T02:16:25.526Z,4.14
2023-03-29T02:18:56.491Z,4.06
2023-03-29T02:21:27.712Z,4.11
2023-03-29T02:23:56.850Z,4.14
2023-03-29T02:26:25.313Z,4.09
2023-03-29T02:28:54.093Z,4.11
2023-03-29T02:31:26.258Z,4.08
2023-03-29T02:33:58.702Z,4.11
2023-03-29T02:36:31.143Z,4.20
2023-03-29T02:38:59.965Z,4.10
2023-03-29T02:41:28.342Z,4.23
2023-03-29T02:43:57.102Z,4.11
2023-03-29T02:46:26.757Z,4.12
2023-03-29T02:48:55.745Z,4.11
2023-03-29T02:51:27.666Z,4.13
2023-03-29T02:53:59.322Z,4.15
2023-03-29T02:56:27.493Z,4.02
2023-03-29T02:58:55.370Z,4.08
2023-03-29T03:01:23.696Z,4.01
2023-03-29T03:03:53.684Z,4.08
2023-03-29T03:06:22.182Z,4.14
2023-03-29T03:08:51.442Z,4.07
2023-03-29T03:11:19.358Z,4.22
2023-03-29T03:13:47.622Z,4.05
2023-03-29T03:16:15.602Z,4.19
2023-03-29T03:18:46.001Z,4.08
2023-03-29T03:21:15.542Z,4.04
2023-03-29T03:23:43.586Z,4.07
2023-03-29T03:26:12.537Z,4.19
2023-03-29T03:28:42.079Z,4.17
2023-03-29T03:31:17.598Z,4.21
2023-03-29T03:34:05.462Z,4.21
2023-03-29T03:36:42.713Z,4.11
2023-03-29T03:39:13.102Z,4.05
2023-03-29T03:41:41.260Z,3.98
2023-03-29T03:44:09.223Z,4.03
2023-03-29T03:46:38.268Z,4.08
2023-03-29T03:49:06.435Z,4.02
2023-03-29T03:51:39.576Z,3.97
2023-03-29T03:54:08.937Z,4.02
2023-03-29T03:56:37.414Z,4.27
2023-03-29T03:59:05.868Z,4.09
2023-03-29T04:02:02.999Z,4.26
2023-03-29T04:04:31.492Z,4.10
2023-03-29T04:07:18.032Z,4.05
2023-03-29T04:10:02.920Z,4.22
2023-03-29T04:12:31.069Z,4.14
2023-03-29T04:14:59.909Z,4.14
2023-03-29T04:17:28.650Z,4.21
2023-03-29T04:20:01.422Z,4.10
2023-03-29T04:22:33.263Z,4.18
2023-03-29T04:25:02.745Z,4.25
2023-03-29T04:27:36.312Z,4.18
2023-03-29T04:30:11.027Z,4.23
2023-03-29T04:33:01.508Z,4.24
2023-03-29T04:35:30.107Z,4.09
2023-03-29T04:37:58.081Z,4.02
2023-03-29T04:40:28.951Z,4.03
2023-03-29T04:43:19.060Z,4.04
2023-03-29T04:45:56.820Z,4.05
2023-03-29T04:48:43.678Z,4.03
2023-03-29T04:51:12.824Z,4.14
2023-03-29T04:53:41.744Z,4.05
2023-03-29T04:56:11.425Z,4.11
2023-03-29T04:59:02.615Z,4.14
2023-03-29T05:01:30.972Z,4.11
2023-03-29T05:03:59.837Z,4.19
2023-03-29T05:06:35.597Z,4.23
2023-03-29T05:09:04.905Z,4.21
2023-03-29T05:11:44.919Z,4.30
2023-03-29T05:14:13.856Z,4.26
2023-03-29T05:16:42.570Z,4.19
2023-03-29T05:19:11.344Z,4.36
2023-03-29T05:21:45.413Z,4.40
2023-03-29T05:24:16.575Z,4.32
2023-03-29T05:26:58.013Z,4.33
2023-03-29T05:29:28.063Z,4.28
2023-03-29T05:32:08.234Z,4.26
2023-03-29T05:34:37.099Z,4.30
2023-03-29T05:37:06.115Z,4.34
2023-03-29T05:39:46.321Z,4.27
2023-03-29T05:42:16.159Z,4.33
2023-03-29T05:44:54.539Z,4.30
2023-03-29T05:47:22.802Z,4.34
2023-03-29T05:49:51.534Z,4.36
2023-03-29T05:52:23.816Z,4.24
2023-03-29T05:54:56.912Z,4.41
2023-03-29T05:57:26.721Z,4.41
2023-03-29T05:59:55.047Z,4.30
2023-03-29T06:02:24.823Z,4.29
2023-03-29T06:04:55.555Z,4.33
2023-03-29T06:07:24.737Z,4.33
2023-03-29T06:10:23.533Z,4.43
2023-03-29T06:12:59.174Z,4.38
2023-03-29T06:15:27.437Z,4.46
2023-03-29T06:18:01.098Z,4.63
2023-03-29T06:20:29.270Z,4.61
2023-03-29T06:23:03.321Z,4.74
2023-03-29T06:25:31.916Z,4.79
2023-03-29T06:28:01.555Z,4.78
2023-03-29T06:30:29.860Z,4.89
2023-03-29T06:33:01.035Z,4.88
2023-03-29T06:35:48.046Z,5.01
2023-03-29T06:38:20.856Z,5.20
2023-03-29T06:41:04.044Z,5.29
2023-03-29T06:43:49.700Z,5.14
2023-03-29T06:46:17.684Z,5.29
2023-03-29T06:48:55.473Z,5.33
2023-03-29T06:51:24.905Z,5.24
2023-03-29T06:53:52.937Z,5.39
2023-03-29T06:56:22.558Z,5.22
2023-03-29T06:59:01.131Z,5.22
2023-03-29T07:01:37.974Z,5.33
2023-03-29T07:04:14.794Z,5.30
2023-03-29T07:07:02.538Z,5.40
2023-03-29T07:09:35.902Z,5.55
2023-03-29T07:12:36.165Z,5.46
2023-03-29T07:15:06.481Z,5.52
2023-03-29T07:17:53.307Z,5.57
2023-03-29T07:20:22.755Z,5.67
2023-03-29T07:22:59.185Z,5.82
2023-03-29T07:25:27.599Z,5.82
2023-03-29T07:27:55.876Z,6.16
2023-03-29T07:30:30.297Z,6.11
2023-03-29T07:33:12.429Z,6.20
2023-03-29T07:35:47.833Z,6.17
2023-03-29T07:38:16.524Z,6.14
2023-03-29T07:40:49.780Z,6.41
2023-03-29T07:43:38.045Z,6.21
2023-03-29T07:46:10.076Z,6.36
2023-03-29T07:48:39.398Z,6.52
2023-03-29T07:51:09.745Z,6.62
2023-03-29T07:53:50.188Z,6.42
2023-03-29T07:56:38.567Z,6.52
2023-03-29T07:59:29.919Z,6.72
2023-03-29T08:02:15.474Z,6.57
2023-03-29T08:04:48.373Z,6.67
2023-03-29T08:07:19.153Z,6.75
2023-03-29T08:10:06.905Z,6.85
2023-03-29T08:12:53.725Z,7.08
2023-03-29T08:15:29.100Z,7.16
2023-03-29T08:17:58.684Z,7.34
2023-03-29T08:20:27.573Z,7.16
2023-03-29T08:23:02.249Z,7.26
2023-03-29T08:25:30.577Z,7.08
2023-03-29T08:27:59.546Z,7.30
2023-03-29T08:30:48.167Z,7.26
2023-03-29T08:33:17.913Z,7.42
2023-03-29T08:35:51.439Z,7.42
2023-03-29T08:38:23.156Z,7.40
2023-03-29T08:40:52.128Z,7.64
2023-03-29T08:43:27.136Z,7.80
2023-03-29T08:46:24.566Z,8.06
2023-03-29T08:48:56.891Z,8.17
2023-03-29T08:51:29.381Z,7.97
2023-03-29T08:53:59.724Z,8.33
2023-03-29T08:56:37.573Z,8.27
2023-03-29T08:59:17.742Z,8.42
2023-03-29T09:01:48.456Z,8.92
2023-03-29T09:04:21.803Z,8.91
2023-03-29T09:06:59.615Z,8.80
2023-03-29T09:09:35.265Z,8.68
2023-03-29T09:12:22.684Z,8.58
2023-03-29T09:14:59.028Z,8.52
2023-03-29T09:17:36.946Z,8.89
2023-03-29T09:20:21.369Z,8.57
2023-03-29T09:22:52.973Z,8.89
2023-03-29T09:25:24.931Z,8.60
2023-03-29T09:28:00.131Z,9.06
2023-03-29T09:30:51.252Z,9.04
2023-03-29T09:33:24.564Z,9.44
2023-03-29T09:36:08.001Z,9.47
2023-03-29T09:38:41.010Z,9.60
2023-03-29T09:41:19.410Z,9.05
2023-03-29T09:43:48.548Z,8.95
2023-03-29T09:46:24.048Z,9.63
2023-03-29T09:48:52.503Z,9.75
2023-03-29T09:51:25.014Z,9.87
2023-03-29T09:53:53.094Z,9.24
2023-03-29T09:56:34.072Z,9.26
2023-03-29T09:59:12.240Z,9.00
2023-03-29T10:01:42.541Z,9.02
2023-03-29T10:04:12.046Z,9.07
2023-03-29T10:06:47.162Z,9.16
2023-03-29T10:09:17.538Z,8.96
2023-03-29T10:11:48.981Z,9.02
2023-03-29T10:14:19.304Z,9.15
2023-03-29T10:16:47.903Z,8.80
2023-03-29T10:19:19.864Z,9.30
2023-03-29T10:21:50.251Z,9.51
2023-03-29T10:24:22.551Z,9.58
2023-03-29T10:26:55.523Z,9.54
2023-03-29T10:29:24.312Z,9.86
2023-03-29T10:31:53.137Z,9.54
2023-03-29T10:34:25.290Z,9.37
2023-03-29T10:36:58.563Z,9.59
2023-03-29T10:39:28.900Z,9.53
2023-03-29T10:41:57.150Z,9.23
2023-03-29T10:46:10.949Z,9.43
2023-03-29T10:48:39.328Z,9.56
2023-03-29T10:51:07.812Z,9.60
2023-03-29T10:53:37.747Z,9.58
2023-03-29T10:56:24.514Z,9.87
2023-03-29T10:59:10.189Z,9.72
2023-03-29T11:01:48.061Z,9.98
2023-03-29T11:04:23.873Z,9.99
2023-03-29T11:06:59.851Z,10.50
2023-03-29T11:09:41.612Z,9.90
2023-03-29T11:12:16.653Z,9.57
2023-03-29T11:14:55.034Z,9.35
2023-03-29T11:17:33.437Z,9.33
2023-03-29T11:20:12.702Z,9.67
2023-03-29T11:22:47.668Z,9.57
2023-03-29T11:25:29.123Z,9.50
2023-03-29T11:28:03.826Z,9.46
2023-03-29T11:30:36.881Z,9.68
2023-03-29T11:33:22.214Z,10.37
2023-03-29T11:35:56.335Z,10.18
2023-03-29T11:38:29.215Z,10.38
2023-03-29T11:41:02.666Z,10.10
2023-03-29T11:43:35.119Z,9.94
2023-03-29T11:46:09.257Z,9.88
2023-03-29T11:48:44.283Z,9.66
2023-03-29T11:51:15.783Z,9.95
2023-03-29T11:53:50.346Z,9.83
2023-03-29T11:56:24.763Z,9.40
2023-03-29T11:58:59.602Z,9.72
2023-03-29T12:01:32.086Z,10.13
2023-03-29T12:04:04.747Z,9.83
2023-03-29T12:06:37.228Z,10.09
2023-03-29T12:09:10.878Z,10.19
2023-03-29T12:11:41.696Z,10.40
2023-03-29T12:14:12.760Z,10.26
2023-03-29T12:16:43.293Z,10.20
2023-03-29T12:19:19.267Z,10.51
2023-03-29T12:21:47.864Z,9.87
2023-03-29T12:24:19.022Z,9.86
2023-03-29T12:26:58.861Z,9.70
2023-03-29T12:29:41.557Z,9.71
2023-03-29T12:32:23.267Z,10.21
2023-03-29T12:35:15.492Z,10.10
2023-03-29T12:38:17.211Z,10.74
2023-03-29T12:41:22.231Z,11.19
2023-03-29T12:44:07.723Z,10.55
2023-03-29T12:46:42.227Z,10.81
2023-03-29T12:53:03.855Z,11.18
2023-03-29T12:55:35.575Z,11.34
2023-03-29T12:58:06.586Z,10.95
2023-03-29T13:00:43.837Z,11.28
2023-03-29T13:03:24.013Z,10.81
2023-03-29T13:06:01.413Z,10.82
2023-03-29T13:08:35.720Z,10.85
2023-03-29T13:11:04.493Z,10.74
2023-03-29T13:13:35.126Z,11.20
2023-03-29T13:16:15.829Z,11.30
2023-03-29T13:19:00.600Z,11.41
2023-03-29T13:21:36.733Z,11.33
2023-03-29T13:24:24.910Z,11.33
2023-03-29T13:26:58.347Z,11.16
2023-03-29T13:29:47.887Z,11.16
2023-03-29T13:32:27.599Z,10.92
2023-03-29T13:34:59.439Z,10.68
2023-03-29T13:37:36.726Z,10.48
2023-03-29T13:40:32.980Z,10.45
2023-03-29T13:43:02.021Z,10.31
2023-03-29T13:45:31.496Z,10.44
2023-03-29T13:48:05.706Z,10.56
2023-03-29T13:50:37.542Z,10.58
2023-03-29T13:53:11.842Z,10.33
2023-03-29T13:55:45.730Z,10.20
2023-03-29T13:58:15.862Z,10.23
2023-03-29T14:00:48.386Z,10.07
2023-03-29T14:03:18.563Z,10.13
2023-03-29T14:05:50.781Z,10.13
2023-03-29T14:08:23.218Z,10.18
2023-03-29T14:10:53.999Z,9.94
2023-03-29T14:13:24.423Z,10.12
2023-03-29T14:15:54.790Z,10.12
2023-03-29T14:18:24.377Z,10.20
2023-03-29T14:20:55.085Z,10.01
2023-03-29T14:23:25.143Z,10.23
2023-03-29T14:25:54.603Z,10.09
2023-03-29T14:28:23.846Z,10.12
2023-03-29T14:30:52.851Z,10.03
2023-03-29T14:33:28.316Z,10.03
2023-03-29T14:35:56.909Z,10.17
2023-03-29T14:38:26.286Z,10.37
2023-03-29T14:40:59.273Z,10.23
2023-03-29T14:43:30.408Z,10.11
2023-03-29T14:45:59.023Z,10.13
2023-03-29T14:48:28.027Z,10.09
2023-03-29T14:50:56.274Z,10.14
2023-03-29T14:53:24.610Z,10.24
2023-03-29T14:55:55.611Z,10.06
2023-03-29T14:58:25.377Z,10.03
2023-03-29T15:00:54.020Z,10.30
2023-03-29T15:03:26.354Z,10.28
2023-03-29T15:05:56.522Z,10.26
2023-03-29T15:08:31.248Z,10.36
2023-03-29T15:11:01.257Z,10.36
2023-03-29T15:13:29.911Z,10.50
2023-03-29T15:16:00.064Z,10.34
2023-03-29T15:18:31.161Z,10.13
2023-03-29T15:20:59.917Z,10.34
2023-03-29T15:23:28.023Z,10.28
2023-03-29T15:25:58.483Z,10.19
2023-03-29T15:28:31.178Z,10.23
2023-03-29T15:31:07.868Z,10.12
2023-03-29T15:33:37.988Z,10.12
2023-03-29T15:36:07.643Z,10.03
2023-03-29T15:38:43.273Z,10.21
2023-03-29T15:41:14.700Z,10.33
2023-03-29T15:43:44.673Z,10.49
2023-03-29T15:46:13.854Z,10.50
2023-03-29T15:48:42.280Z,10.43
2023-03-29T15:51:11.777Z,10.64
2023-03-29T15:53:39.993Z,10.35
2023-03-29T15:56:10.199Z,10.38
2023-03-29T15:58:38.554Z,10.27
2023-03-29T16:01:16.074Z,10.36
2023-03-29T16:03:47.638Z,10.42
2023-03-29T16:06:17.591Z,10.48
2023-03-29T16:08:46.118Z,10.48
2023-03-29T16:11:14.255Z,10.44
2023-03-29T16:13:42.409Z,10.15
2023-03-29T16:16:12.733Z,10.10
2023-03-29T16:18:40.894Z,10.08
2023-03-29T16:21:12.634Z,9.91
2023-03-29T16:23:40.830Z,9.66
2023-03-29T16:26:09.426Z,9.58
2023-03-29T16:28:37.745Z,9.65
2023-03-29T16:31:06.200Z,9.79
2023-03-29T16:33:35.597Z,9.81
2023-03-29T16:36:03.666Z,9.97
2023-03-29T16:38:31.885Z,9.86
2023-03-29T16:41:00.267Z,9.91
2023-03-29T16:43:28.898Z,9.83
2023-03-29T16:45:57.175Z,9.92
2023-03-29T16:48:25.374Z,9.74
2023-03-29T16:50:54.873Z,9.77
2023-03-29T16:53:23.711Z,9.73
2023-03-29T16:55:51.761Z,9.73
2023-03-29T16:58:19.777Z,9.69
2023-03-29T17:00:48.609Z,9.71
2023-03-29T17:03:17.045Z,9.75
2023-03-29T17:05:48.392Z,9.49
2023-03-29T17:08:17.870Z,9.65
2023-03-29T17:10:46.456Z,9.60
2023-03-29T17:13:14.567Z,9.76
2023-03-29T17:15:45.819Z,9.70
2023-03-29T17:18:14.174Z,9.57
2023-03-29T17:20:42.335Z,9.65
2023-03-29T17:23:11.105Z,9.67
2023-03-29T17:25:40.719Z,9.51
2023-03-29T17:28:08.987Z,9.57
2023-03-29T17:30:37.331Z,9.65
2023-03-29T17:33:05.886Z,9.64
2023-03-29T17:35:34.009Z,9.58
2023-03-29T17:38:02.989Z,9.70
2023-03-29T17:40:31.236Z,9.72
2023-03-29T17:43:00.703Z,9.71
2023-03-29T17:45:28.884Z,9.56
2023-03-29T17:47:57.111Z,9.65
2023-03-29T17:50:25.172Z,9.68
2023-03-29T17:52:53.256Z,9.70
2023-03-29T17:55:21.413Z,9.65
2023-03-29T17:57:50.082Z,9.57
2023-03-29T18:00:20.710Z,9.67
2023-03-29T18:02:49.062Z,9.71
2023-03-29T18:05:17.973Z,9.66
2023-03-29T18:07:46.232Z,9.55
2023-03-29T18:10:14.338Z,9.64
2023-03-29T18:12:42.387Z,9.72
2023-03-29T18:15:11.336Z,9.70
2023-03-29T18:17:40.647Z,9.67
2023-03-29T18:20:11.919Z,9.56
2023-03-29T18:22:41.406Z,9.60
2023-03-29T18:25:11.210Z,9.59
2023-03-29T18:27:39.539Z,9.56
2023-03-29T18:30:09.360Z,9.55
2023-03-29T18:32:37.692Z,9.56
2023-03-29T18:35:08.356Z,9.59
2023-03-29T18:37:36.447Z,9.68
2023-03-29T18:40:07.928Z,9.57
2023-03-29T18:42:36.055Z,9.59
2023-03-29T18:45:04.679Z,9.64
2023-03-29T18:47:33.315Z,9.71
2023-03-29T18:50:02.790Z,9.51
2023-03-29T18:52:32.360Z,9.50
2023-03-29T18:55:00.515Z,9.50
2023-03-29T18:57:28.687Z,9.38
2023-03-29T18:59:56.784Z,9.35
2023-03-29T19:02:24.794Z,9.28
2023-03-29T19:04:52.875Z,9.24
2023-03-29T19:07:22.036Z,9.27
2023-03-29T19:09:51.672Z,9.29
2023-03-29T19:12:19.730Z,9.24
2023-03-29T19:14:47.777Z,9.34
2023-03-29T19:17:16.104Z,9.23
2023-03-29T19:19:44.078Z,9.25
2023-03-29T19:22:12.042Z,9.26
2023-03-29T19:24:40.169Z,9.18
2023-03-29T19:27:11.385Z,9.26
2023-03-29T19:29:41.112Z,9.18
2023-03-29T19:32:09.076Z,9.17
2023-03-29T19:34:37.262Z,9.22
2023-03-29T19:37:05.234Z,9.14
2023-03-29T19:39:33.310Z,9.13
2023-03-29T19:42:01.481Z,9.10
2023-03-29T19:44:31.037Z,9.09
2023-03-29T19:46:59.274Z,9.10
2023-03-29T19:49:27.430Z,9.05
2023-03-29T19:51:57.413Z,8.98
2023-03-29T19:54:26.345Z,9.05
2023-03-29T19:56:57.418Z,9.11
2023-03-29T19:59:25.512Z,9.08
2023-03-29T20:01:56.921Z,9.06
2023-03-29T20:04:25.931Z,8.98
2023-03-29T20:06:53.969Z,9.01
2023-03-29T20:09:22.189Z,9.05
2023-03-29T20:11:50.374Z,9.06
2023-03-29T20:14:18.360Z,9.02
2023-03-29T20:16:46.666Z,8.93
2023-03-29T20:19:17.474Z,8.97
2023-03-29T20:21:45.726Z,9.00
2023-03-29T20:24:13.719Z,8.95
2023-03-29T20:26:41.930Z,8.94
2023-03-29T20:29:10.039Z,8.95
2023-03-29T20:31:38.037Z,8.99
2023-03-29T20:34:06.100Z,8.98
2023-03-29T20:36:35.795Z,8.97
2023-03-29T20:39:04.576Z,9.01
2023-03-29T20:41:33.860Z,9.00
2023-03-29T20:44:02.838Z,9.00
2023-03-29T20:46:34.206Z,9.03
2023-03-29T20:49:02.893Z,9.00
2023-03-29T20:51:32.170Z,9.03
2023-03-29T20:54:05.994Z,9.05
2023-03-29T20:56:35.448Z,9.08
2023-03-29T20:59:04.081Z,9.04
2023-03-29T21:01:32.648Z,9.09
2023-03-29T21:04:00.844Z,9.17
2023-03-29T21:06:28.892Z,9.19
2023-03-29T21:08:57.482Z,9.27
2023-03-29T21:11:27.608Z,9.25
2023-03-29T21:13:55.635Z,9.20
2023-03-29T21:16:25.432Z,9.21
2023-03-29T21:18:54.317Z,9.10
2023-03-29T21:21:22.998Z,9.14
2023-03-29T21:23:50.907Z,9.17
2023-03-29T21:26:19.084Z,9.15
2023-03-29T21:28:48.724Z,9.21
2023-03-29T21:31:16.947Z,9.24
2023-03-29T21:33:44.995Z,9.17
2023-03-29T21:36:13.146Z,9.10
2023-03-29T21:38:41.543Z,9.18
2023-03-29T21:41:10.817Z,9.16
2023-03-29T21:43:38.905Z,9.24
2023-03-29T21:46:08.607Z,9.18
2023-03-29T21:48:36.900Z,9.18
2023-03-29T21:51:06.487Z,9.18
2023-03-29T21:53:34.664Z,9.01
2023-03-29T21:56:03.091Z,9.09
2023-03-29T21:58:31.225Z,9.12
2023-03-29T22:00:59.276Z,8.98
2023-03-29T22:03:28.704Z,8.92
2023-03-29T22:06:01.222Z,9.01
2023-03-29T22:08:29.747Z,8.92
2023-03-29T22:10:58.330Z,9.00
2023-03-29T22:13:27.267Z,8.91
2023-03-29T22:15:58.614Z,8.90
2023-03-29T22:18:30.196Z,8.96
2023-03-29T22:20:58.668Z,8.92
2023-03-29T22:23:26.595Z,8.89
2023-03-29T22:25:54.751Z,8.93
2023-03-29T22:28:22.920Z,8.84
2023-03-29T22:30:51.058Z,8.85
2023-03-29T22:33:19.133Z,8.85
2023-03-29T22:35:48.624Z,8.85
2023-03-29T22:38:16.560Z,8.87
2023-03-29T22:40:44.682Z,8.84
2023-03-29T22:43:12.570Z,8.86
2023-03-29T22:45:40.618Z,8.76
2023-03-29T22:48:08.756Z,8.81
2023-03-29T22:50:36.742Z,8.79
2023-03-29T22:53:06.089Z,8.76
2023-03-29T22:55:34.110Z,8.74
2023-03-29T22:58:02.061Z,8.75
2023-03-29T23:00:30.056Z,8.79
2023-03-29T23:02:58.256Z,8.90
2023-03-29T23:05:26.469Z,8.79
2023-03-29T23:07:55.806Z,8.77
2023-03-29T23:10:28.946Z,8.76
2023-03-29T23:13:08.854Z,8.83
2023-03-29T23:15:37.378Z,8.82
2023-03-29T23:18:06.295Z,8.98
2023-03-29T23:20:34.383Z,8.94
2023-03-29T23:23:02.522Z,8.79
2023-03-29T23:25:32.147Z,8.98
2023-03-29T23:28:00.202Z,9.00
2023-03-29T23:30:29.773Z,9.03
2023-03-29T23:32:58.259Z,9.00
2023-03-29T23:35:26.552Z,9.07
2023-03-29T23:37:54.507Z,9.11
2023-03-29T23:40:22.709Z,9.00
2023-03-29T23:42:53.057Z,8.97
2023-03-29T23:45:21.040Z,8.84
2023-03-29T23:47:48.981Z,8.95
2023-03-29T23:50:17.143Z,8.88
2023-03-29T23:52:46.674Z,8.77
2023-03-29T23:55:15.582Z,8.78
2023-03-29T23:57:44.003Z,8.73
